Time;durP1;ratioP1;P1;durP2;ratioP2;P2;SDS_P1;SDS_P2;PMS_P1;PMS_P2;Temp;Humidity;BMP_temperature;BMP_pressure;BME280_temperature;BME280_humidity;BME280_pressure;Samples;Min_cycle;Max_cycle;Signal;HPM_P1;HPM_P2
2022/05/18 00:01:47;;;;;;;5.45;1.70;;;;;;;11.10;41.27;101192.55;2068094;85;32972;-69
2022/05/18 00:04:50;;;;;;;4.97;1.80;;;;;;;11.03;41.19;101197.27;2068380;85;29340;-69
2022/05/18 00:07:52;;;;;;;4.55;2.00;;;;;;;10.96;41.33;101202.44;2063521;85;27638;-68
2022/05/18 00:10:54;;;;;;;2.45;1.40;;;;;;;10.91;41.41;101202.61;2055362;86;28686;-69
2022/05/18 00:13:56;;;;;;;4.40;1.52;;;;;;;10.86;41.41;101208.59;2055316;86;31002;-69
2022/05/18 00:17:03;;;;;;;4.97;1.42;;;;;;;10.80;41.54;101220.91;2055250;86;33062;-70
2022/05/18 00:20:05;;;;;;;4.95;1.45;;;;;;;10.74;41.57;101226.02;2055021;86;29557;-69
2022/05/18 00:23:08;;;;;;;4.70;1.50;;;;;;;10.67;41.64;101223.13;2055878;86;27673;-70
2022/05/18 00:26:11;;;;;;;3.85;1.62;;;;;;;10.61;41.69;101233.61;2011305;86;28645;-69
2022/05/18 00:29:13;;;;;;;4.65;1.82;;;;;;;10.55;41.73;101231.13;2055955;86;30998;-69
2022/05/18 00:32:16;;;;;;;4.80;1.80;;;;;;;10.49;41.82;101228.20;2055637;86;33044;-70
2022/05/18 00:35:19;;;;;;;7.03;1.82;;;;;;;10.43;41.97;101228.88;2055993;86;29351;-69
2022/05/18 00:38:21;;;;;;;3.58;1.60;;;;;;;10.37;42.07;101231.72;2056081;86;27945;-69
2022/05/18 00:41:23;;;;;;;7.30;2.75;;;;;;;10.26;42.21;101238.32;2055949;86;28629;-69
2022/05/18 00:44:26;;;;;;;5.37;2.00;;;;;;;10.19;42.36;101246.13;2055982;86;31107;-69
2022/05/18 00:47:28;;;;;;;5.80;1.72;;;;;;;10.12;42.62;101241.92;2055920;86;32944;-69
2022/05/18 00:50:33;;;;;;;5.62;1.80;;;;;;;10.02;42.91;101249.38;2055952;86;29337;-69
2022/05/18 00:53:39;;;;;;;;;;;;;;;9.93;42.89;101247.86;2035432;86;27603;-69
2022/05/18 00:56:46;;;;;;;3.75;1.45;;;;;;;9.84;43.12;101257.53;2030699;86;29214;-70
2022/05/18 01:00:03;;;;;;;5.37;1.75;;;;;;;9.72;43.46;101256.11;2055556;86;31013;-69
2022/05/18 01:03:14;;;;;;;4.65;1.65;;;;;;;9.65;43.82;101257.20;2055394;86;33036;-70
2022/05/18 01:06:33;;;;;;;3.72;1.72;;;;;;;9.57;43.71;101254.76;2055604;86;29361;-69
2022/05/18 01:09:45;;;;;;;2.12;1.70;;;;;;;9.50;43.80;101267.45;2040691;85;27727;-69
2022/05/18 01:12:47;;;;;;;6.30;1.80;;;;;;;9.42;44.06;101266.33;2074433;85;28733;-67
2022/05/18 01:15:50;;;;;;;6.40;2.67;;;;;;;9.36;43.91;101272.33;2074689;85;31004;-68
2022/05/18 01:18:53;;;;;;;2.92;2.00;;;;;;;9.30;43.82;101276.50;2074709;85;32954;-68
2022/05/18 01:22:10;;;;;;;3.77;2.08;;;;;;;9.23;43.98;101279.81;2074702;85;29323;-67
2022/05/18 01:25:59;;;;;;;9.30;2.65;;;;;;;9.15;44.10;101288.52;2048243;86;27796;-68
2022/05/18 01:29:05;;;;;;;2.58;1.72;;;;;;;9.06;44.31;101282.97;2007208;88;28896;-68
2022/05/18 01:32:12;;;;;;;8.28;2.10;;;;;;;8.99;44.57;101285.38;2007318;88;31086;-67
2022/05/18 01:35:20;;;;;;;4.72;2.08;;;;;;;8.92;44.46;101288.68;2007551;88;32963;-66
2022/05/18 01:38:22;;;;;;;4.95;2.15;;;;;;;8.87;44.50;101294.59;2007585;88;29328;-67
2022/05/18 01:41:26;;;;;;;5.62;2.42;;;;;;;8.79;44.68;101294.80;2007661;88;27575;-66
2022/05/18 01:44:28;;;;;;;4.85;2.05;;;;;;;8.72;44.84;101291.88;2007592;88;28669;-66
2022/05/18 01:47:36;;;;;;;6.72;2.58;;;;;;;8.64;44.96;101302.77;2007535;88;31056;-67
2022/05/18 01:50:39;;;;;;;6.80;1.95;;;;;;;8.56;45.16;101303.41;2007666;88;33009;-67
2022/05/18 01:53:41;;;;;;;7.95;2.00;;;;;;;8.47;45.19;101309.81;2007539;88;29325;-67
2022/05/18 01:56:43;;;;;;;10.80;2.45;;;;;;;8.39;45.37;101314.01;2007709;88;27914;-67
2022/05/18 01:59:45;;;;;;;3.45;1.70;;;;;;;8.30;45.62;101315.58;2038933;85;28649;-67
2022/05/18 02:02:47;;;;;;;6.17;1.52;;;;;;;8.21;45.81;101320.67;2077322;85;31011;-68
2022/05/18 02:05:52;;;;;;;2.30;1.60;;;;;;;8.12;46.02;101327.10;2077331;85;32926;-69
2022/05/18 02:08:54;;;;;;;2.45;1.12;;;;;;;8.02;46.36;101322.90;2077619;85;29383;-69
2022/05/18 02:11:56;;;;;;;3.75;1.57;;;;;;;7.95;46.54;101332.80;2078061;85;27549;-69
2022/05/18 02:14:59;;;;;;;2.60;1.95;;;;;;;7.88;46.66;101337.39;2077951;85;28639;-69
2022/05/18 02:18:01;;;;;;;4.87;1.80;;;;;;;7.80;46.91;101337.14;2077943;85;31067;-71
2022/05/18 02:21:08;;;;;;;4.15;2.17;;;;;;;7.70;47.11;101336.02;2077900;85;33158;-70
2022/05/18 02:24:12;;;;;;;7.70;2.22;;;;;;;7.62;47.29;101335.75;2078711;85;29311;-70
2022/05/18 02:27:14;;;;;;;3.10;2.00;;;;;;;7.56;47.53;101346.09;2078017;85;27664;-68
2022/05/18 02:30:17;;;;;;;4.12;2.00;;;;;;;7.49;47.70;101355.11;2077595;85;28736;-67
2022/05/18 02:33:19;;;;;;;8.78;2.35;;;;;;;7.38;48.01;101360.20;2077924;85;31061;-67
2022/05/18 02:36:22;;;;;;;6.28;1.72;;;;;;;7.30;48.12;101360.79;2077858;85;33063;-67
2022/05/18 02:39:26;;;;;;;3.45;2.17;;;;;;;7.24;48.13;101368.45;2077821;85;29333;-67
2022/05/18 02:42:29;;;;;;;4.22;1.98;;;;;;;7.17;48.60;101370.83;2078249;85;27616;-68
2022/05/18 02:45:30;;;;;;;5.78;1.87;;;;;;;7.10;48.71;101372.72;2077859;85;28638;-68
2022/05/18 02:48:33;;;;;;;3.52;1.62;;;;;;;7.01;48.86;101377.33;2077683;85;31021;-68
2022/05/18 02:51:35;;;;;;;5.70;2.15;;;;;;;6.93;49.01;101383.66;2076926;85;32982;-67
2022/05/18 02:57:57;;;;;;;5.25;2.75;;;;;;;6.81;49.46;101391.39;2076568;85;27799;-68
2022/05/18 03:01:01;;;;;;;6.33;2.80;;;;;;;6.75;49.73;101391.95;2076766;85;28753;-68
2022/05/18 03:04:04;;;;;;;7.53;2.27;;;;;;;6.72;49.76;101399.98;2076727;85;31045;-67
2022/05/18 03:07:08;;;;;;;3.70;1.65;;;;;;;6.67;49.91;101397.39;2076500;85;33063;-67
2022/05/18 03:10:15;;;;;;;5.75;2.12;;;;;;;6.62;50.24;101395.28;2072562;85;30021;-67
2022/05/18 03:13:16;;;;;;;14.10;2.55;;;;;;;6.59;50.28;101409.96;2072528;85;27923;-69
2022/05/18 03:16:18;;;;;;;6.10;2.25;;;;;;;6.56;50.57;101415.33;2072491;85;28671;-68
2022/05/18 03:19:22;;;;;;;3.65;2.02;;;;;;;6.53;50.56;101426.45;2072436;85;31118;-68
2022/05/18 03:25:45;;;;;;;11.35;2.30;;;;;;;6.49;51.00;101430.52;2069173;85;29276;-69
2022/05/18 03:28:54;;;;;;;3.67;2.27;;;;;;;6.49;51.13;101437.17;2069204;85;28075;-69
2022/05/18 03:32:00;;;;;;;3.75;2.10;;;;;;;6.49;51.56;101437.17;2068004;85;28689;-68
2022/05/18 03:35:02;;;;;;;5.25;2.30;;;;;;;6.48;51.63;101440.27;2069713;85;31037;-68
2022/05/18 03:38:05;;;;;;;6.58;2.33;;;;;;;6.49;51.65;101438.50;2069403;85;32981;-67
2022/05/18 03:41:08;;;;;;;4.70;2.33;;;;;;;6.49;51.72;101438.03;2069620;85;29328;-68
2022/05/18 03:44:10;;;;;;;4.72;2.65;;;;;;;6.53;52.05;101442.89;2069157;85;27871;-69
2022/05/18 03:47:12;;;;;;;6.42;2.35;;;;;;;6.55;52.01;101447.71;2068759;85;28631;-69
2022/05/18 03:50:15;;;;;;;6.67;2.27;;;;;;;6.59;51.92;101453.89;2068360;85;31057;-69
2022/05/18 03:53:17;;;;;;;8.23;2.75;;;;;;;6.65;52.13;101457.34;2068287;85;32967;-68
2022/05/18 03:56:21;;;;;;;6.42;2.80;;;;;;;6.73;52.13;101459.89;2067983;85;29361;-68
2022/05/18 03:59:24;;;;;;;4.92;2.45;;;;;;;6.79;52.06;101460.25;2068578;85;27728;-70
2022/05/18 04:02:26;;;;;;;4.08;2.42;;;;;;;6.87;51.94;101466.78;2068367;85;28673;-68
2022/05/18 04:05:30;;;;;;;9.43;2.50;;;;;;;6.96;51.81;101465.30;2068487;85;31048;-68
2022/05/18 04:08:33;;;;;;;6.80;2.45;;;;;;;7.05;51.89;101474.93;2067505;84;33089;-68
2022/05/18 04:11:36;;;;;;;7.28;2.10;;;;;;;7.12;51.75;101472.14;2066194;85;29446;-68
2022/05/18 04:14:38;;;;;;;8.13;2.60;;;;;;;7.23;51.45;101473.77;2066249;86;27726;-67
2022/05/18 04:17:40;;;;;;;7.92;2.12;;;;;;;7.32;51.39;101470.94;2066344;85;28743;-69
2022/05/18 04:20:43;;;;;;;8.50;2.30;;;;;;;7.42;51.19;101472.98;2067335;85;31075;-69
2022/05/18 04:23:46;;;;;;;3.10;1.87;;;;;;;7.50;51.10;101467.52;2068141;85;33007;-69
2022/05/18 04:26:48;;;;;;;7.83;2.37;;;;;;;7.58;51.03;101476.28;2068447;85;29521;-70
2022/05/18 04:29:50;;;;;;;3.98;2.15;;;;;;;7.69;50.90;101481.42;2068412;85;27763;-71
2022/05/18 04:32:54;;;;;;;5.35;2.30;;;;;;;7.81;50.87;101482.95;2068737;85;28644;-70
2022/05/18 04:35:56;;;;;;;2.85;2.02;;;;;;;7.97;50.75;101484.41;2068779;85;31050;-69
2022/05/18 04:38:58;;;;;;;3.02;1.82;;;;;;;8.39;50.78;101479.56;2068770;85;32966;-70
2022/05/18 04:42:00;;;;;;;3.30;1.98;;;;;;;9.72;50.88;101485.75;2068813;85;29320;-70
2022/05/18 04:45:05;;;;;;;5.22;1.98;;;;;;;11.49;50.11;101483.12;2068686;85;27706;-69
2022/05/18 04:48:08;;;;;;;7.13;2.20;;;;;;;13.21;47.67;101472.62;2068217;85;28650;-69
2022/05/18 04:51:11;;;;;;;4.20;2.00;;;;;;;14.81;45.90;101470.90;2068843;85;31045;-69
2022/05/18 04:54:13;;;;;;;3.77;2.10;;;;;;;16.17;43.95;101474.38;2068905;85;32968;-69
2022/05/18 04:57:16;;;;;;;9.18;2.52;;;;;;;17.31;40.64;101472.52;2068938;85;29333;-70
2022/05/18 05:00:20;;;;;;;5.10;2.25;;;;;;;18.03;40.75;101467.76;2068981;85;27611;-69
2022/05/18 05:03:23;;;;;;;3.60;2.02;;;;;;;18.78;39.05;101476.98;2068812;85;32661;-69
2022/05/18 05:06:27;;;;;;;6.78;3.05;;;;;;;19.37;38.54;101474.49;2068570;85;31073;-69
2022/05/18 05:09:29;;;;;;;3.65;2.27;;;;;;;20.18;36.13;101477.09;2068673;84;33111;-70
2022/05/18 05:12:32;;;;;;;5.62;2.98;;;;;;;20.87;34.97;101479.39;2068525;85;29566;-71
2022/05/18 05:15:36;;;;;;;6.58;1.98;;;;;;;21.29;34.55;101477.63;2068960;85;27809;-71
2022/05/18 05:18:39;;;;;;;5.37;2.62;;;;;;;21.75;34.03;101478.69;2045692;86;28765;-69
2022/05/18 05:21:42;;;;;;;5.67;2.10;;;;;;;21.96;31.09;101480.20;2045229;85;31031;-72
2022/05/18 05:24:44;;;;;;;5.75;1.98;;;;;;;21.96;31.72;101484.30;2068542;85;32979;-71
2022/05/18 05:27:47;;;;;;;3.50;2.08;;;;;;;22.22;31.36;101479.11;2068542;85;29339;-70
2022/05/18 05:30:49;;;;;;;4.70;2.22;;;;;;;22.41;31.66;101477.13;2068555;85;27891;-70
2022/05/18 05:33:52;;;;;;;3.08;1.90;;;;;;;22.55;30.98;101483.72;2044844;86;28730;-70
2022/05/18 05:36:54;;;;;;;4.80;2.25;;;;;;;22.53;30.69;101484.84;2067540;85;31184;-68
2022/05/18 05:39:56;;;;;;;8.08;2.10;;;;;;;22.40;29.14;101491.28;2068936;85;32984;-69
2022/05/18 05:42:58;;;;;;;2.72;1.87;;;;;;;22.22;28.98;101497.71;2068574;86;29411;-70
2022/05/18 05:46:05;;;;;;;6.47;1.90;;;;;;;22.12;29.22;101493.48;2069012;85;27613;-69
2022/05/18 05:49:07;;;;;;;2.62;1.87;;;;;;;22.18;28.64;101492.62;2068935;85;28648;-67
2022/05/18 05:52:11;;;;;;;5.83;1.80;;;;;;;22.30;28.91;101497.09;2068590;86;31060;-69
2022/05/18 05:55:13;;;;;;;5.20;1.80;;;;;;;22.73;28.00;101492.28;2068870;85;32976;-68
2022/05/18 05:58:18;;;;;;;5.85;2.00;;;;;;;22.99;28.21;101501.53;2068904;85;29332;-69
2022/05/18 06:01:20;;;;;;;3.95;2.27;;;;;;;23.30;27.12;101496.76;2069152;85;27691;-68
2022/05/18 06:04:22;;;;;;;5.95;2.10;;;;;;;23.62;27.12;101499.97;2068902;85;28609;-68
2022/05/18 06:07:25;;;;;;;6.45;1.95;;;;;;;23.91;26.54;101504.25;2068824;85;31045;-67
2022/05/18 06:10:27;;;;;;;3.37;1.98;;;;;;;24.43;26.17;101496.56;2068497;85;33050;-69
2022/05/18 06:13:29;;;;;;;5.45;2.05;;;;;;;24.73;26.29;101502.55;2068854;85;29372;-68
2022/05/18 06:16:33;;;;;;;3.85;2.02;;;;;;;25.03;24.57;101504.00;2068939;85;27740;-67
2022/05/18 06:19:36;;;;;;;4.30;1.98;;;;;;;25.32;25.21;101505.38;2068953;85;28695;-67
2022/05/18 06:22:39;;;;;;;2.87;1.60;;;;;;;25.77;25.33;101501.73;2068887;85;31059;-69
2022/05/18 06:25:43;;;;;;;9.43;2.85;;;;;;;26.14;24.76;101505.58;2068507;85;32999;-67
2022/05/18 06:28:57;;;;;;;7.00;2.17;;;;;;;26.58;25.06;101497.58;2068624;85;29404;-70
2022/05/18 06:32:13;;;;;;;7.83;2.42;;;;;;;27.15;23.53;101512.53;2068629;85;27984;-68
2022/05/18 06:35:17;;;;;;;3.12;1.92;;;;;;;27.35;23.15;101518.42;2068466;85;28851;-68
2022/05/18 06:38:23;;;;;;;;;;;;;;;27.55;23.39;101515.02;2071084;86;31074;-68
2022/05/18 06:41:27;;;;;;;5.85;2.42;;;;;;;27.97;23.16;101518.44;2068594;86;33015;-67
2022/05/18 06:44:29;;;;;;;4.07;2.80;;;;;;;28.44;22.89;101520.50;2069059;85;29362;-68
2022/05/18 06:47:31;;;;;;;4.05;2.40;;;;;;;28.88;22.61;101512.09;2068869;85;27864;-68
2022/05/18 06:50:33;;;;;;;4.83;1.92;;;;;;;29.26;22.73;101522.69;2068802;85;28689;-67
2022/05/18 06:53:35;;;;;;;6.17;2.35;;;;;;;29.63;21.46;101524.14;2068845;85;31064;-68
2022/05/18 06:56:43;;;;;;;8.83;2.37;;;;;;;29.81;21.20;101524.48;2068787;85;32952;-68
2022/05/18 06:59:45;;;;;;;5.30;2.25;;;;;;;29.97;21.44;101529.15;2068839;85;29387;-68
2022/05/18 07:02:47;;;;;;;4.50;1.92;;;;;;;29.76;20.32;101536.06;2068652;85;27708;-68
2022/05/18 07:05:50;;;;;;;3.87;2.00;;;;;;;29.78;20.95;101538.14;2068347;85;28655;-69
2022/05/18 07:08:55;;;;;;;3.58;1.95;;;;;;;29.99;20.76;101536.75;2068649;86;31072;-70
2022/05/18 07:11:59;;;;;;;10.15;1.90;;;;;;;29.82;19.65;101535.88;2070273;85;32972;-69
2022/05/18 07:15:01;;;;;;;6.22;1.85;;;;;;;29.73;20.23;101539.67;2071044;85;29398;-69
2022/05/18 07:18:06;;;;;;;4.50;1.90;;;;;;;29.86;19.85;101549.17;2070653;85;27758;-69
2022/05/18 07:21:09;;;;;;;8.58;2.10;;;;;;;29.70;20.37;101547.26;2070922;85;28662;-69
2022/05/18 07:24:12;;;;;;;7.55;2.02;;;;;;;29.83;19.98;101542.60;2070483;85;31111;-70
2022/05/18 07:27:16;;;;;;;7.70;2.00;;;;;;;29.54;18.42;101547.25;2070864;85;32957;-70
2022/05/18 07:30:18;;;;;;;;;;;;;;;29.26;19.79;101555.81;2073338;85;29361;-70
2022/05/18 07:33:22;;;;;;;4.05;1.70;;;;;;;29.15;19.66;101542.34;2070644;85;27684;-68
2022/05/18 07:36:24;;;;;;;7.08;1.82;;;;;;;29.36;19.89;101552.44;2071000;85;28647;-68
2022/05/18 07:39:28;;;;;;;5.00;2.67;;;;;;;29.11;19.02;101543.20;2070779;84;31025;-69
2022/05/18 07:42:30;;;;;;;6.83;1.80;;;;;;;29.03;19.30;101545.92;2070777;85;33346;-69
2022/05/18 07:45:34;;;;;;;5.83;1.98;;;;;;;29.06;19.44;101538.16;2070830;85;29373;-69
2022/05/18 07:48:39;;;;;;;4.65;2.08;;;;;;;29.16;19.84;101539.93;2071005;85;27608;-68
2022/05/18 07:51:41;;;;;;;5.30;1.80;;;;;;;29.20;19.45;101539.95;2070914;85;29328;-68
2022/05/18 07:54:47;;;;;;;5.67;1.67;;;;;;;29.23;19.88;101541.84;2070927;85;31044;-68
2022/05/18 07:57:48;;;;;;;3.83;2.20;;;;;;;29.29;18.98;101525.12;2070580;85;33101;-69
2022/05/18 08:00:50;;;;;;;3.77;1.70;;;;;;;29.19;19.17;101540.45;2070914;85;29303;-68
2022/05/18 08:03:53;;;;;;;5.80;1.82;;;;;;;29.30;19.08;101540.65;2070867;85;27614;-70
2022/05/18 08:06:55;;;;;;;5.08;1.72;;;;;;;28.84;18.89;101538.80;2070403;84;28638;-68
2022/05/18 08:16:41;;;;;;;3.00;1.45;;;;;;;28.53;18.74;101538.80;2068682;85;29105;-71
2022/05/18 08:19:44;;;;;;;4.92;1.70;;;;;;;28.50;18.93;101545.52;2068822;85;27924;-67
2022/05/18 08:22:47;;;;;;;6.53;2.00;;;;;;;28.62;18.84;101543.34;2068372;86;28719;-71
2022/05/18 08:25:50;;;;;;;8.65;2.33;;;;;;;28.57;18.91;101543.45;2068744;85;31064;-68
2022/05/18 08:28:56;;;;;;;4.17;1.75;;;;;;;28.38;19.12;101546.80;2068689;85;33018;-68
2022/05/18 08:31:59;;;;;;;3.10;1.85;;;;;;;28.52;19.41;101550.85;2068762;85;29353;-68
2022/05/18 08:35:03;;;;;;;6.12;1.62;;;;;;;28.57;18.82;101551.23;2068669;86;27644;-72
2022/05/18 08:38:06;;;;;;;6.42;1.95;;;;;;;28.47;19.02;101542.20;2045553;86;28647;-75
2022/05/18 08:41:17;;;;;;;4.92;1.67;;;;;;;28.47;18.93;101552.73;2068625;85;31035;-68
2022/05/18 08:44:31;;;;;;;6.55;1.82;;;;;;;28.44;17.88;101549.45;2068656;85;32877;-73
2022/05/18 08:47:46;;;;;;;2.90;1.60;;;;;;;28.29;18.51;101550.55;2068873;85;29338;-70
2022/05/18 08:50:49;;;;;;;3.58;1.55;;;;;;;28.23;18.24;101545.67;2067438;86;27663;-70
2022/05/18 08:54:22;;;;;;;2.45;1.30;;;;;;;28.11;17.41;101551.47;2068611;85;28706;-69
2022/05/18 08:57:28;;;;;;;4.92;1.50;;;;;;;27.85;17.53;101548.16;2000367;88;31042;-69
2022/05/18 09:00:45;;;;;;;5.15;1.72;;;;;;;27.56;17.92;101547.88;2008276;88;33030;-68
2022/05/18 09:03:53;;;;;;;10.03;1.72;;;;;;;27.37;18.35;101544.75;2008584;88;29344;-68
2022/05/18 09:07:08;;;;;;;3.02;1.40;;;;;;;27.08;17.74;101541.70;2006243;87;27979;-68
2022/05/18 09:10:32;;;;;;;5.15;1.47;;;;;;;26.45;17.78;101547.42;2008445;87;28768;-67
2022/05/18 09:13:36;;;;;;;4.80;1.40;;;;;;;26.03;17.89;101543.16;1927040;92;31107;-67
2022/05/18 09:16:41;;;;;;;;;;;;;;;25.80;18.45;101539.88;1929766;92;33739;-68
2022/05/18 09:20:04;;;;;;;3.95;1.52;;;;;;;25.61;18.53;101541.63;1927822;92;29497;-68
2022/05/18 09:23:26;;;;;;;5.37;1.90;;;;;;;25.61;18.16;101537.50;1927734;92;27752;-67
2022/05/18 09:26:40;;;;;;;5.03;1.75;;;;;;;25.39;18.66;101542.73;1927111;90;28710;-68
2022/05/18 09:30:14;;;;;;;5.37;1.40;;;;;;;25.28;18.49;101545.11;1926596;92;31054;-70
2022/05/18 09:33:49;;;;;;;2.83;1.77;;;;;;;25.06;18.41;101536.62;1932975;90;33206;-73
2022/05/18 09:37:07;;;;;;;;;;;;;;;24.82;18.73;101548.81;1960188;90;29378;-70
2022/05/18 09:40:42;;;;;;;5.30;1.60;;;;;;;24.59;18.91;101550.86;1958153;90;27978;-68
2022/05/18 09:44:27;;;;;;;5.35;1.75;;;;;;;24.47;19.23;101556.93;1955010;90;28860;-69
2022/05/18 09:47:35;;;;;;;3.33;1.35;;;;;;;24.31;19.00;101554.70;1958054;90;31035;-68
2022/05/18 09:50:41;;;;;;;4.67;1.67;;;;;;;24.04;19.78;101554.73;2067315;85;33006;-68
2022/05/18 09:53:44;;;;;;;3.42;1.30;;;;;;;23.96;19.78;101549.05;2043900;85;29438;-69
2022/05/18 09:56:58;;;;;;;8.15;1.47;;;;;;;23.83;20.18;101553.34;2071095;85;27720;-68
2022/05/18 10:00:12;;;;;;;5.65;1.72;;;;;;;23.60;19.71;101551.20;2070897;85;28673;-69
2022/05/18 10:10:24;;;;;;;4.03;1.55;;;;;;;22.48;20.06;101546.67;2067873;85;29546;-68
2022/05/18 10:13:34;;;;;;;4.22;1.67;;;;;;;22.13;20.42;101547.59;2070773;85;27623;-67
2022/05/18 10:16:47;;;;;;;2.00;1.42;;;;;;;21.91;20.31;101538.86;2043755;85;28684;-68
2022/05/18 10:19:58;;;;;;;3.05;1.60;;;;;;;21.72;20.83;101540.29;2070666;85;31092;-68
2022/05/18 10:23:05;;;;;;;2.20;1.20;;;;;;;21.63;20.90;101533.69;2068518;85;29745;-68
2022/05/18 10:26:27;;;;;;;3.08;1.62;;;;;;;21.62;20.70;101536.52;2043645;85;29335;-68
2022/05/18 10:29:35;;;;;;;6.00;1.60;;;;;;;21.39;20.70;101529.08;2067891;85;27771;-67
2022/05/18 10:33:22;;;;;;;5.42;2.05;;;;;;;21.00;20.92;101528.86;2071083;85;28650;-68
2022/05/18 10:36:28;;;;;;;2.30;1.45;;;;;;;20.83;21.30;101519.23;2071050;85;31043;-68
2022/05/18 10:39:42;;;;;;;2.70;1.40;;;;;;;20.71;21.54;101506.84;2070987;85;33125;-69
2022/05/18 10:42:50;;;;;;;3.15;1.55;;;;;;;20.87;21.32;101518.89;2070348;85;29372;-69
2022/05/18 10:46:03;;;;;;;6.15;1.47;;;;;;;20.76;21.45;101517.45;2070470;85;27979;-69
2022/05/18 10:49:15;;;;;;;2.77;2.10;;;;;;;20.71;21.43;101516.88;2070929;85;28673;-69
2022/05/18 10:52:28;;;;;;;4.55;1.55;;;;;;;20.57;21.51;101514.68;2064041;85;31262;-69
2022/05/18 10:55:32;;;;;;;2.15;1.60;;;;;;;20.43;21.42;101519.75;2044981;85;33037;-69
2022/05/18 10:58:51;;;;;;;3.08;1.30;;;;;;;20.29;21.30;101516.65;2070936;85;29340;-68
2022/05/18 11:02:08;;;;;;;3.65;1.32;;;;;;;20.20;22.00;101517.31;2066754;85;28121;-69
2022/05/18 11:05:44;;;;;;;5.55;1.32;;;;;;;20.22;21.66;101513.11;2070110;85;28652;-68
2022/05/18 11:08:46;;;;;;;;;;;;;;;20.16;21.96;101509.88;2072527;85;31020;-68
2022/05/18 11:12:06;;;;;;;2.58;1.42;;;;;;;20.28;22.17;101505.88;2068928;85;32902;-68
2022/05/18 11:15:19;;;;;;;2.72;1.30;;;;;;;20.43;22.32;101502.06;2026987;87;29448;-69
2022/05/18 11:18:29;;;;;;;5.87;1.52;;;;;;;20.60;22.63;101502.17;2040754;87;28045;-67
2022/05/18 11:21:43;;;;;;;4.15;1.32;;;;;;;20.77;22.48;101498.73;2040479;87;28794;-67
2022/05/18 11:25:28;;;;;;;3.95;1.35;;;;;;;20.77;21.97;101492.81;2035209;86;31052;-67
2022/05/18 11:28:58;;;;;;;1.95;1.35;;;;;;;20.75;22.03;101487.09;2035179;87;33021;-67
2022/05/18 11:32:27;;;;;;;2.77;1.20;;;;;;;20.69;21.86;101477.48;2034293;87;29392;-68
2022/05/18 11:35:43;;;;;;;1.10;0.93;;;;;;;20.72;22.20;101473.69;2028936;87;28448;-68
2022/05/18 11:39:07;;;;;;;6.10;1.50;;;;;;;20.68;22.21;101469.44;2041326;87;28702;-69
2022/05/18 11:42:18;;;;;;;2.80;1.20;;;;;;;20.56;21.73;101466.66;2041620;87;31060;-69
2022/05/18 11:45:44;;;;;;;5.00;1.85;;;;;;;20.52;22.07;101465.13;2041615;87;32980;-67
2022/05/18 11:49:16;;;;;;;1.87;1.40;;;;;;;20.48;21.74;101462.25;2041356;87;29342;-67
2022/05/18 11:52:40;;;;;;;4.65;1.47;;;;;;;20.39;22.11;101467.02;2058560;85;27925;-68
2022/05/18 11:55:57;;;;;;;2.40;1.00;;;;;;;20.40;21.96;101464.17;2008584;88;28678;-68
2022/05/18 12:03:12;;;;;;;4.87;1.07;;;;;;;20.52;21.61;101453.39;1852312;95;33204;-66
2022/05/18 12:06:30;;;;;;;5.62;1.50;;;;;;;20.45;21.27;101455.19;1828300;96;29401;-67
2022/05/18 12:10:05;;;;;;;2.35;0.95;;;;;;;20.36;21.63;101450.39;1855020;94;27934;-69
2022/05/18 12:13:24;;;;;;;6.90;1.20;;;;;;;20.36;21.81;101444.95;1835629;94;28750;-69
2022/05/18 12:16:44;;;;;;;6.20;1.10;;;;;;;20.37;21.62;101438.53;1809471;97;31116;-69
2022/05/18 12:20:06;;;;;;;3.42;1.37;;;;;;;20.42;21.48;101441.80;1827067;97;32850;-68
2022/05/18 12:23:13;;;;;;;2.22;1.20;;;;;;;20.44;21.73;101445.28;1826964;97;29386;-67
2022/05/18 12:26:17;;;;;;;3.52;1.07;;;;;;;20.39;21.78;101442.02;1827402;96;27640;-68
2022/05/18 12:29:23;;;;;;;3.07;1.10;;;;;;;20.36;22.21;101438.15;1827360;97;28738;-67
2022/05/18 12:32:26;;;;;;;2.05;1.40;;;;;;;20.35;21.96;101421.47;1842600;95;31233;-68
2022/05/18 12:35:52;;;;;;;4.40;1.92;;;;;;;20.42;21.90;101430.05;1867216;95;32985;-69
2022/05/18 12:39:14;;;;;;;4.45;1.40;;;;;;;20.42;21.98;101437.71;1981227;87;29348;-67
2022/05/18 12:42:23;;;;;;;3.27;1.27;;;;;;;20.45;21.94;101444.30;2043393;87;27846;-68
2022/05/18 12:45:40;;;;;;;2.47;1.20;;;;;;;20.48;21.93;101439.11;2043306;87;28692;-68
2022/05/18 12:48:57;;;;;;;3.08;1.10;;;;;;;20.49;21.22;101439.48;2042825;87;31056;-68
2022/05/18 12:52:05;;;;;;;3.55;1.60;;;;;;;20.39;21.17;101431.13;2042438;87;33616;-67
2022/05/18 12:55:31;;;;;;;1.77;1.57;;;;;;;20.33;20.89;101430.23;2041017;86;29352;-69
2022/05/18 12:58:40;;;;;;;1.42;1.00;;;;;;;20.25;20.64;101428.07;2042822;85;27650;-68
2022/05/18 13:01:53;;;;;;;5.12;2.52;;;;;;;20.08;20.27;101425.20;2018846;87;28668;-68
2022/05/18 13:04:58;;;;;;;3.22;1.47;;;;;;;19.97;20.37;101431.41;2019400;87;31083;-68
2022/05/18 13:08:17;;;;;;;3.47;1.27;;;;;;;19.92;20.84;101421.36;2043118;87;32742;-69
2022/05/18 13:11:31;;;;;;;3.42;1.50;;;;;;;19.93;21.02;101418.14;1938837;89;29329;-69
2022/05/18 13:14:38;;;;;;;1.32;1.12;;;;;;;19.99;20.92;101414.48;1984882;89;28169;-68
2022/05/18 13:17:54;;;;;;;4.40;1.60;;;;;;;19.97;20.50;101416.44;1986729;89;28846;-68
2022/05/18 13:21:20;;;;;;;2.95;1.50;;;;;;;19.93;20.45;101413.59;1983927;89;31077;-68
2022/05/18 13:24:28;;;;;;;1.52;1.40;;;;;;;19.93;20.71;101412.70;1986610;89;33044;-68
2022/05/18 13:27:42;;;;;;;3.50;1.15;;;;;;;19.89;20.73;101410.70;1986750;89;29342;-69
2022/05/18 13:30:54;;;;;;;2.30;1.67;;;;;;;19.85;20.47;101408.66;1987368;89;27971;-67
2022/05/18 13:34:10;;;;;;;4.12;1.40;;;;;;;19.79;20.43;101402.29;1983707;89;28663;-68
2022/05/18 13:37:14;;;;;;;5.15;1.40;;;;;;;19.76;20.66;101400.28;1986792;89;31082;-68
2022/05/18 13:40:20;;;;;;;3.87;1.45;;;;;;;19.70;20.60;101399.73;1986924;89;32972;-68
2022/05/18 13:43:30;;;;;;;3.37;1.30;;;;;;;19.71;21.12;101397.39;1983516;89;29466;-67
2022/05/18 13:46:36;;;;;;;3.65;1.37;;;;;;;19.77;21.38;101394.73;1982986;89;27856;-68
2022/05/18 13:49:45;;;;;;;2.92;1.17;;;;;;;19.83;21.17;101398.38;2057177;85;28710;-68
2022/05/18 13:52:49;;;;;;;8.05;1.55;;;;;;;19.82;21.17;101392.56;2070810;85;31045;-67
2022/05/18 13:56:01;;;;;;;3.52;1.27;;;;;;;19.85;21.41;101388.27;2073889;85;33013;-66
2022/05/18 13:59:21;;;;;;;2.17;1.27;;;;;;;19.84;21.34;101388.36;2069899;85;29944;-67
2022/05/18 14:02:26;;;;;;;4.55;1.20;;;;;;;19.81;21.03;101377.70;2073043;85;27957;-67
2022/05/18 14:05:34;;;;;;;3.83;1.15;;;;;;;19.81;21.24;101381.77;2070459;85;28651;-67
2022/05/18 14:08:42;;;;;;;1.20;0.95;;;;;;;19.78;21.20;101383.34;2073724;85;31029;-67
2022/05/18 14:11:47;;;;;;;4.90;1.45;;;;;;;19.78;21.19;101376.55;2073379;85;33027;-68
2022/05/18 14:14:54;;;;;;;2.30;1.40;;;;;;;19.80;21.44;101377.31;2077660;85;29396;-66
2022/05/18 14:17:57;;;;;;;6.45;1.30;;;;;;;19.84;21.64;101371.56;2077784;85;27730;-67
2022/05/18 14:21:05;;;;;;;2.40;1.70;;;;;;;19.85;21.43;101367.88;2053860;85;28645;-66
2022/05/18 14:24:14;;;;;;;5.08;1.35;;;;;;;19.83;21.27;101369.83;2074228;85;31242;-67
2022/05/18 14:27:37;;;;;;;2.60;1.15;;;;;;;19.82;21.33;101370.80;2077930;85;32988;-67
2022/05/18 14:30:45;;;;;;;4.60;1.75;;;;;;;19.84;21.36;101381.09;2073761;85;29335;-68
2022/05/18 14:34:00;;;;;;;6.20;1.55;;;;;;;19.84;21.25;101367.96;2078026;85;27703;-66
2022/05/18 14:37:11;;;;;;;5.15;1.70;;;;;;;19.85;21.21;101366.98;2074658;85;28740;-65
2022/05/18 14:40:23;;;;;;;2.17;1.17;;;;;;;19.84;21.09;101365.24;2074533;85;28253;-66
2022/05/18 14:43:34;;;;;;;3.55;1.25;;;;;;;19.83;21.24;101362.14;2074883;85;33013;-66
2022/05/18 14:46:36;;;;;;;2.75;1.85;;;;;;;19.84;21.24;101353.00;2073760;85;29509;-66
2022/05/18 14:49:48;;;;;;;1.85;1.00;;;;;;;19.87;21.11;101351.46;2028705;85;27974;-67
2022/05/18 14:53:11;;;;;;;2.05;1.05;;;;;;;19.87;21.30;101351.46;2051467;85;29186;-67
2022/05/18 14:56:18;;;;;;;2.10;1.00;;;;;;;19.90;21.21;101356.69;2073847;85;31061;-66
2022/05/18 14:59:21;;;;;;;2.12;1.67;;;;;;;19.88;20.95;101347.77;2078115;85;32968;-68
2022/05/18 15:02:25;;;;;;;5.03;1.40;;;;;;;19.87;21.08;101345.52;2053526;85;29329;-67
2022/05/18 15:05:29;;;;;;;2.55;1.20;;;;;;;19.89;21.18;101344.06;2032436;85;27932;-70